sensor_id;sensor_type;location;lat;lon;timestamp;temperature;humidity
4635;DHT22;2330;48.158;11.816;2023-03-12T00:02:00;-0.80;98.50
4635;DHT22;2330;48.158;11.816;2023-03-12T00:04:27;-0.70;98.50
4635;DHT22;2330;48.158;11.816;2023-03-12T00:06:54;-0.70;98.50
4635;DHT22;2330;48.158;11.816;2023-03-12T00:09:20;-0.80;98.50
4635;DHT22;2330;48.158;11.816;2023-03-12T00:11:48;-0.90;98.50
4635;DHT22;2330;48.158;11.816;2023-03-12T00:14:15;-0.80;98.50
4635;DHT22;2330;48.158;11.816;2023-03-12T00:16:42;-0.80;98.50
4635;DHT22;2330;48.158;11.816;2023-03-12T00:19:11;-0.80;98.50
4635;DHT22;2330;48.158;11.816;2023-03-12T00:21:38;-0.80;98.50
4635;DHT22;2330;48.158;11.816;2023-03-12T00:24:06;-0.70;98.50
4635;DHT22;2330;48.158;11.816;2023-03-12T00:26:33;-0.80;98.50
4635;DHT22;2330;48.158;11.816;2023-03-12T00:29:00;-0.80;98.50
4635;DHT22;2330;48.158;11.816;2023-03-12T00:31:29;-0.70;98.50
4635;DHT22;2330;48.158;11.816;2023-03-12T00:34:00;-0.60;98.50
4635;DHT22;2330;48.158;11.816;2023-03-12T00:36:29;-0.50;98.50
4635;DHT22;2330;48.158;11.816;2023-03-12T00:38:57;-0.60;98.50
4635;DHT22;2330;48.158;11.816;2023-03-12T00:41:25;-0.70;98.50
4635;DHT22;2330;48.158;11.816;2023-03-12T00:43:53;-0.60;98.50
4635;DHT22;2330;48.158;11.816;2023-03-12T00:46:20;-0.60;98.50
4635;DHT22;2330;48.158;11.816;2023-03-12T00:48:47;-0.70;98.50
4635;DHT22;2330;48.158;11.816;2023-03-12T00:51:15;-0.80;98.50
4635;DHT22;2330;48.158;11.816;2023-03-12T00:53:42;-0.90;98.50
4635;DHT22;2330;48.158;11.816;2023-03-12T00:56:09;-1.10;98.50
4635;DHT22;2330;48.158;11.816;2023-03-12T00:58:36;-1.10;98.50
4635;DHT22;2330;48.158;11.816;2023-03-12T01:01:04;-1.10;98.50
4635;DHT22;2330;48.158;11.816;2023-03-12T01:03:31;-1.20;98.50
4635;DHT22;2330;48.158;11.816;2023-03-12T01:05:58;-1.30;98.50
4635;DHT22;2330;48.158;11.816;2023-03-12T01:08:25;-1.40;98.50
4635;DHT22;2330;48.158;11.816;2023-03-12T01:10:51;-1.40;98.50
4635;DHT22;2330;48.158;11.816;2023-03-12T01:13:19;-1.40;98.50
4635;DHT22;2330;48.158;11.816;2023-03-12T01:15:45;-1.40;98.50
4635;DHT22;2330;48.158;11.816;2023-03-12T01:18:12;-1.50;98.50
4635;DHT22;2330;48.158;11.816;2023-03-12T01:20:40;-1.40;98.50
4635;DHT22;2330;48.158;11.816;2023-03-12T01:23:07;-1.40;98.50
4635;DHT22;2330;48.158;11.816;2023-03-12T01:25:35;-1.40;98.50
4635;DHT22;2330;48.158;11.816;2023-03-12T01:28:02;-1.20;98.50
4635;DHT22;2330;48.158;11.816;2023-03-12T01:30:29;-1.10;98.50
4635;DHT22;2330;48.158;11.816;2023-03-12T01:32:56;-1.10;98.50
4635;DHT22;2330;48.158;11.816;2023-03-12T01:35:23;-1.10;98.50
4635;DHT22;2330;48.158;11.816;2023-03-12T01:37:50;-1.00;98.50
4635;DHT22;2330;48.158;11.816;2023-03-12T01:40:21;-0.90;98.50
4635;DHT22;2330;48.158;11.816;2023-03-12T01:42:56;-0.80;98.50
4635;DHT22;2330;48.158;11.816;2023-03-12T01:45:50;-0.70;98.50
4635;DHT22;2330;48.158;11.816;2023-03-12T01:48:26;-0.80;98.50
4635;DHT22;2330;48.158;11.816;2023-03-12T01:50:53;-0.80;98.50
4635;DHT22;2330;48.158;11.816;2023-03-12T01:53:21;-0.80;98.50
4635;DHT22;2330;48.158;11.816;2023-03-12T01:55:49;-0.80;98.50
4635;DHT22;2330;48.158;11.816;2023-03-12T01:58:16;-0.80;98.50
4635;DHT22;2330;48.158;11.816;2023-03-12T02:00:43;-0.80;98.50
4635;DHT22;2330;48.158;11.816;2023-03-12T02:03:11;-0.80;98.50
4635;DHT22;2330;48.158;11.816;2023-03-12T02:05:52;-0.70;98.50
4635;DHT22;2330;48.158;11.816;2023-03-12T02:08:22;-0.60;98.50
4635;DHT22;2330;48.158;11.816;2023-03-12T02:10:49;-0.50;98.50
4635;DHT22;2330;48.158;11.816;2023-03-12T02:13:16;-0.60;98.50
4635;DHT22;2330;48.158;11.816;2023-03-12T02:15:43;-0.70;98.50
4635;DHT22;2330;48.158;11.816;2023-03-12T02:18:14;-0.70;98.50
4635;DHT22;2330;48.158;11.816;2023-03-12T02:20:52;-0.70;98.50
4635;DHT22;2330;48.158;11.816;2023-03-12T02:23:30;-0.80;98.50
4635;DHT22;2330;48.158;11.816;2023-03-12T02:25:58;-1.00;98.50
4635;DHT22;2330;48.158;11.816;2023-03-12T02:28:27;-1.00;98.50
4635;DHT22;2330;48.158;11.816;2023-03-12T02:31:01;-1.00;98.50
4635;DHT22;2330;48.158;11.816;2023-03-12T02:33:28;-1.00;98.50
4635;DHT22;2330;48.158;11.816;2023-03-12T02:35:55;-1.00;98.50
4635;DHT22;2330;48.158;11.816;2023-03-12T02:39:01;-0.90;98.50
4635;DHT22;2330;48.158;11.816;2023-03-12T02:41:36;-0.90;98.50
4635;DHT22;2330;48.158;11.816;2023-03-12T02:44:13;-1.00;98.50
4635;DHT22;2330;48.158;11.816;2023-03-12T02:46:45;-1.00;98.50
4635;DHT22;2330;48.158;11.816;2023-03-12T02:49:13;-1.00;98.50
4635;DHT22;2330;48.158;11.816;2023-03-12T02:51:41;-1.00;98.50
4635;DHT22;2330;48.158;11.816;2023-03-12T02:54:09;-0.90;98.50
4635;DHT22;2330;48.158;11.816;2023-03-12T02:56:36;-0.80;98.50
4635;DHT22;2330;48.158;11.816;2023-03-12T02:59:03;-0.80;98.50
4635;DHT22;2330;48.158;11.816;2023-03-12T03:01:30;-0.80;98.50
4635;DHT22;2330;48.158;11.816;2023-03-12T03:04:00;-0.90;98.50
4635;DHT22;2330;48.158;11.816;2023-03-12T03:06:27;-0.90;98.50
4635;DHT22;2330;48.158;11.816;2023-03-12T03:08:54;-1.10;98.50
4635;DHT22;2330;48.158;11.816;2023-03-12T03:11:21;-1.10;98.50
4635;DHT22;2330;48.158;11.816;2023-03-12T03:13:51;-1.20;98.50
4635;DHT22;2330;48.158;11.816;2023-03-12T03:16:18;-1.20;98.50
4635;DHT22;2330;48.158;11.816;2023-03-12T03:18:45;-1.20;98.50
4635;DHT22;2330;48.158;11.816;2023-03-12T03:21:13;-1.30;98.50
4635;DHT22;2330;48.158;11.816;2023-03-12T03:23:46;-1.30;98.50
4635;DHT22;2330;48.158;11.816;2023-03-12T03:26:15;-1.40;98.50
4635;DHT22;2330;48.158;11.816;2023-03-12T03:28:42;-1.40;98.50
4635;DHT22;2330;48.158;11.816;2023-03-12T03:31:11;-1.40;98.50
4635;DHT22;2330;48.158;11.816;2023-03-12T03:33:39;-1.30;98.50
4635;DHT22;2330;48.158;11.816;2023-03-12T03:36:07;-1.20;98.50
4635;DHT22;2330;48.158;11.816;2023-03-12T03:38:34;-1.10;98.50
4635;DHT22;2330;48.158;11.816;2023-03-12T03:41:01;-1.10;98.50
4635;DHT22;2330;48.158;11.816;2023-03-12T03:43:28;-1.10;98.50
4635;DHT22;2330;48.158;11.816;2023-03-12T03:45:56;-1.20;98.50
4635;DHT22;2330;48.158;11.816;2023-03-12T03:48:24;-1.10;98.50
4635;DHT22;2330;48.158;11.816;2023-03-12T03:50:51;-1.10;98.50
4635;DHT22;2330;48.158;11.816;2023-03-12T03:53:18;-1.20;98.50
4635;DHT22;2330;48.158;11.816;2023-03-12T03:55:45;-1.20;98.50
4635;DHT22;2330;48.158;11.816;2023-03-12T03:58:12;-1.20;98.50
4635;DHT22;2330;48.158;11.816;2023-03-12T04:00:39;-1.20;98.50
4635;DHT22;2330;48.158;11.816;2023-03-12T04:03:06;-1.20;98.50
4635;DHT22;2330;48.158;11.816;2023-03-12T04:05:33;-1.20;98.50
4635;DHT22;2330;48.158;11.816;2023-03-12T04:08:00;-1.10;98.50
4635;DHT22;2330;48.158;11.816;2023-03-12T04:10:29;-1.10;98.50
4635;DHT22;2330;48.158;11.816;2023-03-12T04:12:56;-1.00;98.50
4635;DHT22;2330;48.158;11.816;2023-03-12T04:15:23;-0.90;98.50
4635;DHT22;2330;48.158;11.816;2023-03-12T04:17:50;-0.80;98.50
4635;DHT22;2330;48.158;11.816;2023-03-12T04:20:17;-0.70;98.50
4635;DHT22;2330;48.158;11.816;2023-03-12T04:22:43;-0.70;98.50
4635;DHT22;2330;48.158;11.816;2023-03-12T04:25:10;-0.80;98.50
4635;DHT22;2330;48.158;11.816;2023-03-12T04:27:37;-0.80;98.50
4635;DHT22;2330;48.158;11.816;2023-03-12T04:30:04;-0.70;98.50
4635;DHT22;2330;48.158;11.816;2023-03-12T04:32:31;-0.70;98.50
4635;DHT22;2330;48.158;11.816;2023-03-12T04:34:58;-0.70;98.50
4635;DHT22;2330;48.158;11.816;2023-03-12T04:37:25;-0.60;98.50
4635;DHT22;2330;48.158;11.816;2023-03-12T04:39:52;-0.60;98.50
4635;DHT22;2330;48.158;11.816;2023-03-12T04:42:18;-0.60;98.50
4635;DHT22;2330;48.158;11.816;2023-03-12T04:44:45;-0.60;98.50
4635;DHT22;2330;48.158;11.816;2023-03-12T04:47:12;-0.60;98.50
4635;DHT22;2330;48.158;11.816;2023-03-12T04:49:38;-0.60;98.50
4635;DHT22;2330;48.158;11.816;2023-03-12T04:52:05;-0.50;98.50
4635;DHT22;2330;48.158;11.816;2023-03-12T04:54:32;-0.40;98.50
4635;DHT22;2330;48.158;11.816;2023-03-12T04:56:59;-0.40;98.50
4635;DHT22;2330;48.158;11.816;2023-03-12T04:59:26;-0.30;98.50
4635;DHT22;2330;48.158;11.816;2023-03-12T05:01:53;-0.30;98.50
4635;DHT22;2330;48.158;11.816;2023-03-12T05:04:20;-0.30;98.50
4635;DHT22;2330;48.158;11.816;2023-03-12T05:06:46;-0.30;98.50
4635;DHT22;2330;48.158;11.816;2023-03-12T05:09:13;-0.30;98.50
4635;DHT22;2330;48.158;11.816;2023-03-12T05:11:40;-0.30;98.50
4635;DHT22;2330;48.158;11.816;2023-03-12T05:14:08;-0.30;98.50
4635;DHT22;2330;48.158;11.816;2023-03-12T05:16:35;-0.30;98.50
4635;DHT22;2330;48.158;11.816;2023-03-12T05:19:03;-0.20;98.50
4635;DHT22;2330;48.158;11.816;2023-03-12T05:21:30;-0.20;98.50
4635;DHT22;2330;48.158;11.816;2023-03-12T05:23:58;-0.20;98.50
4635;DHT22;2330;48.158;11.816;2023-03-12T05:26:27;-0.20;98.50
4635;DHT22;2330;48.158;11.816;2023-03-12T05:28:54;-0.20;98.50
4635;DHT22;2330;48.158;11.816;2023-03-12T05:31:21;-0.20;98.50
4635;DHT22;2330;48.158;11.816;2023-03-12T05:33:48;-0.20;98.50
4635;DHT22;2330;48.158;11.816;2023-03-12T05:36:19;-0.20;98.50
4635;DHT22;2330;48.158;11.816;2023-03-12T05:38:46;-0.20;98.50
4635;DHT22;2330;48.158;11.816;2023-03-12T05:41:23;-0.20;98.50
4635;DHT22;2330;48.158;11.816;2023-03-12T05:43:55;-0.20;98.50
4635;DHT22;2330;48.158;11.816;2023-03-12T05:46:23;-0.20;98.50
4635;DHT22;2330;48.158;11.816;2023-03-12T05:48:51;-0.10;98.50
4635;DHT22;2330;48.158;11.816;2023-03-12T05:51:18;-0.10;98.50
4635;DHT22;2330;48.158;11.816;2023-03-12T05:53:45;-0.10;98.50
4635;DHT22;2330;48.158;11.816;2023-03-12T05:56:14;-0.10;98.50
4635;DHT22;2330;48.158;11.816;2023-03-12T05:58:41;-0.10;98.50
4635;DHT22;2330;48.158;11.816;2023-03-12T06:01:13;-0.10;98.50
4635;DHT22;2330;48.158;11.816;2023-03-12T06:03:40;-0.10;98.50
4635;DHT22;2330;48.158;11.816;2023-03-12T06:06:09;0.00;98.50
4635;DHT22;2330;48.158;11.816;2023-03-12T06:08:36;0.10;98.50
4635;DHT22;2330;48.158;11.816;2023-03-12T06:11:03;0.20;98.50
4635;DHT22;2330;48.158;11.816;2023-03-12T06:13:30;0.30;98.50
4635;DHT22;2330;48.158;11.816;2023-03-12T06:16:08;0.40;98.50
4635;DHT22;2330;48.158;11.816;2023-03-12T06:18:37;0.50;98.50
4635;DHT22;2330;48.158;11.816;2023-03-12T06:21:17;0.60;98.50
4635;DHT22;2330;48.158;11.816;2023-03-12T06:23:45;0.60;98.50
4635;DHT22;2330;48.158;11.816;2023-03-12T06:26:12;0.70;98.50
4635;DHT22;2330;48.158;11.816;2023-03-12T06:28:40;0.80;98.50
4635;DHT22;2330;48.158;11.816;2023-03-12T06:31:07;0.80;98.50
4635;DHT22;2330;48.158;11.816;2023-03-12T06:33:34;0.90;98.50
4635;DHT22;2330;48.158;11.816;2023-03-12T06:36:02;1.00;98.50
4635;DHT22;2330;48.158;11.816;2023-03-12T06:38:30;1.00;98.50
4635;DHT22;2330;48.158;11.816;2023-03-12T06:40:58;1.10;98.50
4635;DHT22;2330;48.158;11.816;2023-03-12T06:43:26;1.20;98.50
4635;DHT22;2330;48.158;11.816;2023-03-12T06:45:54;1.20;98.50
4635;DHT22;2330;48.158;11.816;2023-03-12T06:48:23;1.20;98.50
4635;DHT22;2330;48.158;11.816;2023-03-12T06:50:50;1.30;98.50
4635;DHT22;2330;48.158;11.816;2023-03-12T06:53:18;1.30;98.50
4635;DHT22;2330;48.158;11.816;2023-03-12T06:55:45;1.40;98.50
4635;DHT22;2330;48.158;11.816;2023-03-12T06:58:12;1.40;98.50
4635;DHT22;2330;48.158;11.816;2023-03-12T07:00:39;1.40;98.50
4635;DHT22;2330;48.158;11.816;2023-03-12T07:03:06;1.40;98.50
4635;DHT22;2330;48.158;11.816;2023-03-12T07:05:32;1.50;98.50
4635;DHT22;2330;48.158;11.816;2023-03-12T07:07:59;1.60;98.50
4635;DHT22;2330;48.158;11.816;2023-03-12T07:10:26;1.70;98.50
4635;DHT22;2330;48.158;11.816;2023-03-12T07:12:56;1.70;98.50
4635;DHT22;2330;48.158;11.816;2023-03-12T07:15:23;1.80;98.50
4635;DHT22;2330;48.158;11.816;2023-03-12T07:17:49;1.80;98.50
4635;DHT22;2330;48.158;11.816;2023-03-12T07:20:16;1.80;98.50
4635;DHT22;2330;48.158;11.816;2023-03-12T07:22:43;1.80;98.50
4635;DHT22;2330;48.158;11.816;2023-03-12T07:25:10;1.90;98.50
4635;DHT22;2330;48.158;11.816;2023-03-12T07:27:37;1.90;98.50
4635;DHT22;2330;48.158;11.816;2023-03-12T07:30:04;1.90;98.50
4635;DHT22;2330;48.158;11.816;2023-03-12T07:32:31;2.00;98.50
4635;DHT22;2330;48.158;11.816;2023-03-12T07:34:59;2.10;98.50
4635;DHT22;2330;48.158;11.816;2023-03-12T07:37:25;2.20;98.50
4635;DHT22;2330;48.158;11.816;2023-03-12T07:39:52;2.20;98.50
4635;DHT22;2330;48.158;11.816;2023-03-12T07:42:20;2.30;98.50
4635;DHT22;2330;48.158;11.816;2023-03-12T07:44:47;2.40;98.50
4635;DHT22;2330;48.158;11.816;2023-03-12T07:47:14;2.50;98.50
4635;DHT22;2330;48.158;11.816;2023-03-12T07:49:49;2.50;98.50
4635;DHT22;2330;48.158;11.816;2023-03-12T07:52:16;2.50;98.50
4635;DHT22;2330;48.158;11.816;2023-03-12T07:54:43;2.70;98.50
4635;DHT22;2330;48.158;11.816;2023-03-12T07:57:11;2.90;98.50
4635;DHT22;2330;48.158;11.816;2023-03-12T07:59:38;3.00;98.50
4635;DHT22;2330;48.158;11.816;2023-03-12T08:02:05;3.00;98.50
4635;DHT22;2330;48.158;11.816;2023-03-12T08:04:32;3.00;98.50
4635;DHT22;2330;48.158;11.816;2023-03-12T08:07:01;3.10;98.50
4635;DHT22;2330;48.158;11.816;2023-03-12T08:09:27;3.10;98.50
4635;DHT22;2330;48.158;11.816;2023-03-12T08:11:55;3.10;98.50
4635;DHT22;2330;48.158;11.816;2023-03-12T08:14:21;3.20;98.50
4635;DHT22;2330;48.158;11.816;2023-03-12T08:16:48;3.20;98.50
4635;DHT22;2330;48.158;11.816;2023-03-12T08:19:15;3.30;98.50
4635;DHT22;2330;48.158;11.816;2023-03-12T08:21:42;3.20;98.50
4635;DHT22;2330;48.158;11.816;2023-03-12T08:24:09;3.20;98.50
4635;DHT22;2330;48.158;11.816;2023-03-12T08:26:36;3.40;98.50
4635;DHT22;2330;48.158;11.816;2023-03-12T08:29:02;3.40;98.50
4635;DHT22;2330;48.158;11.816;2023-03-12T08:31:29;3.40;98.50
4635;DHT22;2330;48.158;11.816;2023-03-12T08:33:56;3.40;98.50
4635;DHT22;2330;48.158;11.816;2023-03-12T08:36:22;3.50;98.50
4635;DHT22;2330;48.158;11.816;2023-03-12T08:38:49;3.60;98.50
4635;DHT22;2330;48.158;11.816;2023-03-12T08:41:16;3.70;98.50
4635;DHT22;2330;48.158;11.816;2023-03-12T08:43:43;3.80;98.50
4635;DHT22;2330;48.158;11.816;2023-03-12T08:46:09;3.90;98.50
4635;DHT22;2330;48.158;11.816;2023-03-12T08:48:38;3.90;98.50
4635;DHT22;2330;48.158;11.816;2023-03-12T08:51:06;4.00;98.50
4635;DHT22;2330;48.158;11.816;2023-03-12T08:53:34;4.10;98.50
4635;DHT22;2330;48.158;11.816;2023-03-12T08:56:02;4.20;98.50
4635;DHT22;2330;48.158;11.816;2023-03-12T08:58:29;4.30;98.50
4635;DHT22;2330;48.158;11.816;2023-03-12T09:00:56;4.40;98.50
4635;DHT22;2330;48.158;11.816;2023-03-12T09:03:24;4.50;98.50
4635;DHT22;2330;48.158;11.816;2023-03-12T09:06:19;4.60;98.50
4635;DHT22;2330;48.158;11.816;2023-03-12T09:08:46;4.60;98.50
4635;DHT22;2330;48.158;11.816;2023-03-12T09:11:14;4.50;98.50
4635;DHT22;2330;48.158;11.816;2023-03-12T09:13:41;4.30;98.50
4635;DHT22;2330;48.158;11.816;2023-03-12T09:16:28;4.30;98.50
4635;DHT22;2330;48.158;11.816;2023-03-12T09:18:55;4.20;98.50
4635;DHT22;2330;48.158;11.816;2023-03-12T09:21:21;4.10;98.50
4635;DHT22;2330;48.158;11.816;2023-03-12T09:23:48;4.30;98.50
4635;DHT22;2330;48.158;11.816;2023-03-12T09:26:15;4.50;98.50
4635;DHT22;2330;48.158;11.816;2023-03-12T09:28:42;4.80;98.50
4635;DHT22;2330;48.158;11.816;2023-03-12T09:31:10;5.00;98.50
4635;DHT22;2330;48.158;11.816;2023-03-12T09:33:38;4.80;98.50
4635;DHT22;2330;48.158;11.816;2023-03-12T09:36:05;4.80;98.50
4635;DHT22;2330;48.158;11.816;2023-03-12T09:38:31;4.80;98.50
4635;DHT22;2330;48.158;11.816;2023-03-12T09:41:03;4.50;98.50
4635;DHT22;2330;48.158;11.816;2023-03-12T09:43:40;4.30;98.50
4635;DHT22;2330;48.158;11.816;2023-03-12T09:46:13;4.10;98.50
4635;DHT22;2330;48.158;11.816;2023-03-12T09:48:41;4.10;98.50
4635;DHT22;2330;48.158;11.816;2023-03-12T09:51:32;4.20;98.50
4635;DHT22;2330;48.158;11.816;2023-03-12T09:54:04;4.40;98.50
4635;DHT22;2330;48.158;11.816;2023-03-12T09:56:33;4.40;98.50
4635;DHT22;2330;48.158;11.816;2023-03-12T09:59:00;4.30;98.50
4635;DHT22;2330;48.158;11.816;2023-03-12T10:01:31;4.30;98.50
4635;DHT22;2330;48.158;11.816;2023-03-12T10:04:05;4.30;98.50
4635;DHT22;2330;48.158;11.816;2023-03-12T10:06:54;4.00;98.50
4635;DHT22;2330;48.158;11.816;2023-03-12T10:09:30;3.90;98.50
4635;DHT22;2330;48.158;11.816;2023-03-12T10:17:02;3.60;98.50
4635;DHT22;2330;48.158;11.816;2023-03-12T10:22:45;3.70;98.50
4635;DHT22;2330;48.158;11.816;2023-03-12T10:28:20;3.70;98.50
4635;DHT22;2330;48.158;11.816;2023-03-12T10:30:55;3.80;98.50
4635;DHT22;2330;48.158;11.816;2023-03-12T10:33:28;3.80;98.50
4635;DHT22;2330;48.158;11.816;2023-03-12T10:35:59;3.80;98.50
4635;DHT22;2330;48.158;11.816;2023-03-12T10:38:28;3.70;98.50
4635;DHT22;2330;48.158;11.816;2023-03-12T10:40:55;3.70;98.50
4635;DHT22;2330;48.158;11.816;2023-03-12T10:43:22;3.70;98.50
4635;DHT22;2330;48.158;11.816;2023-03-12T10:45:53;3.60;98.50
4635;DHT22;2330;48.158;11.816;2023-03-12T10:48:24;3.60;98.50
4635;DHT22;2330;48.158;11.816;2023-03-12T10:51:03;3.40;98.50
4635;DHT22;2330;48.158;11.816;2023-03-12T10:53:34;3.30;98.50
4635;DHT22;2330;48.158;11.816;2023-03-12T10:56:13;3.40;98.50
4635;DHT22;2330;48.158;11.816;2023-03-12T10:58:51;3.30;98.50
4635;DHT22;2330;48.158;11.816;2023-03-12T11:01:22;3.30;98.50
4635;DHT22;2330;48.158;11.816;2023-03-12T11:03:50;3.30;98.50
4635;DHT22;2330;48.158;11.816;2023-03-12T11:06:27;3.30;98.50
4635;DHT22;2330;48.158;11.816;2023-03-12T11:09:06;3.20;98.50
4635;DHT22;2330;48.158;11.816;2023-03-12T11:11:44;3.20;98.50
4635;DHT22;2330;48.158;11.816;2023-03-12T11:14:25;3.20;98.50
4635;DHT22;2330;48.158;11.816;2023-03-12T11:16:54;3.20;98.50
4635;DHT22;2330;48.158;11.816;2023-03-12T11:19:30;3.20;98.50
4635;DHT22;2330;48.158;11.816;2023-03-12T11:22:03;3.20;98.50
4635;DHT22;2330;48.158;11.816;2023-03-12T11:24:30;3.20;98.50
4635;DHT22;2330;48.158;11.816;2023-03-12T11:27:17;3.20;98.50
4635;DHT22;2330;48.158;11.816;2023-03-12T11:29:49;3.30;98.50
4635;DHT22;2330;48.158;11.816;2023-03-12T11:32:31;3.40;98.50
4635;DHT22;2330;48.158;11.816;2023-03-12T11:35:00;3.40;98.50
4635;DHT22;2330;48.158;11.816;2023-03-12T11:37:39;3.40;98.50
4635;DHT22;2330;48.158;11.816;2023-03-12T11:40:36;3.50;98.50
4635;DHT22;2330;48.158;11.816;2023-03-12T11:43:31;3.60;98.50
4635;DHT22;2330;48.158;11.816;2023-03-12T11:52:00;3.80;98.50
4635;DHT22;2330;48.158;11.816;2023-03-12T11:57:26;3.80;98.50
4635;DHT22;2330;48.158;11.816;2023-03-12T12:00:14;3.90;98.50
4635;DHT22;2330;48.158;11.816;2023-03-12T12:10:47;4.10;98.50
4635;DHT22;2330;48.158;11.816;2023-03-12T12:16:09;4.20;98.50
4635;DHT22;2330;48.158;11.816;2023-03-12T12:24:37;4.30;98.50
4635;DHT22;2330;48.158;11.816;2023-03-12T12:35:40;4.30;98.50
4635;DHT22;2330;48.158;11.816;2023-03-12T12:38:23;4.30;98.50
4635;DHT22;2330;48.158;11.816;2023-03-12T12:41:14;4.20;98.50
4635;DHT22;2330;48.158;11.816;2023-03-12T12:43:49;4.30;98.50
4635;DHT22;2330;48.158;11.816;2023-03-12T12:46:29;4.30;98.50
4635;DHT22;2330;48.158;11.816;2023-03-12T12:51:32;4.50;98.50
4635;DHT22;2330;48.158;11.816;2023-03-12T12:59:35;4.60;98.50
4635;DHT22;2330;48.158;11.816;2023-03-12T13:02:10;4.60;98.50
4635;DHT22;2330;48.158;11.816;2023-03-12T13:04:40;4.60;98.50
4635;DHT22;2330;48.158;11.816;2023-03-12T13:09:42;4.70;98.50
4635;DHT22;2330;48.158;11.816;2023-03-12T13:12:11;4.70;98.50
4635;DHT22;2330;48.158;11.816;2023-03-12T13:14:40;4.80;98.50
4635;DHT22;2330;48.158;11.816;2023-03-12T13:17:26;4.80;98.50
4635;DHT22;2330;48.158;11.816;2023-03-12T13:23:04;4.90;98.50
4635;DHT22;2330;48.158;11.816;2023-03-12T13:31:48;5.30;98.50
4635;DHT22;2330;48.158;11.816;2023-03-12T13:33:51;5.60;98.50
4635;DHT22;2330;48.158;11.816;2023-03-12T13:36:21;5.80;98.50
4635;DHT22;2330;48.158;11.816;2023-03-12T13:38:58;6.00;98.50
4635;DHT22;2330;48.158;11.816;2023-03-12T13:41:34;6.20;98.50
4635;DHT22;2330;48.158;11.816;2023-03-12T13:47:03;6.40;98.50
4635;DHT22;2330;48.158;11.816;2023-03-12T13:49:47;6.40;98.50
4635;DHT22;2330;48.158;11.816;2023-03-12T13:52:32;6.40;98.50
4635;DHT22;2330;48.158;11.816;2023-03-12T13:55:18;6.50;98.50
4635;DHT22;2330;48.158;11.816;2023-03-12T13:57:53;6.60;98.50
4635;DHT22;2330;48.158;11.816;2023-03-12T14:00:26;6.80;98.50
4635;DHT22;2330;48.158;11.816;2023-03-12T14:06:06;7.10;98.50
4635;DHT22;2330;48.158;11.816;2023-03-12T14:09:24;7.20;98.50
4635;DHT22;2330;48.158;11.816;2023-03-12T14:16:55;7.40;98.50
4635;DHT22;2330;48.158;11.816;2023-03-12T14:19:25;7.40;98.50
4635;DHT22;2330;48.158;11.816;2023-03-12T14:21:53;7.40;98.50
4635;DHT22;2330;48.158;11.816;2023-03-12T14:24:30;7.50;98.50
4635;DHT22;2330;48.158;11.816;2023-03-12T14:27:00;7.70;98.50
4635;DHT22;2330;48.158;11.816;2023-03-12T14:29:37;7.80;98.50
4635;DHT22;2330;48.158;11.816;2023-03-12T14:32:11;8.00;98.50
4635;DHT22;2330;48.158;11.816;2023-03-12T14:34:46;8.10;98.50
4635;DHT22;2330;48.158;11.816;2023-03-12T14:37:19;8.10;98.50
4635;DHT22;2330;48.158;11.816;2023-03-12T14:39:53;8.10;98.50
4635;DHT22;2330;48.158;11.816;2023-03-12T14:42:26;8.10;98.50
4635;DHT22;2330;48.158;11.816;2023-03-12T14:45:03;8.10;98.50
4635;DHT22;2330;48.158;11.816;2023-03-12T14:47:43;8.20;98.50
4635;DHT22;2330;48.158;11.816;2023-03-12T14:50:22;8.60;98.50
4635;DHT22;2330;48.158;11.816;2023-03-12T14:52:50;8.70;98.50
4635;DHT22;2330;48.158;11.816;2023-03-12T14:55:22;8.70;98.50
4635;DHT22;2330;48.158;11.816;2023-03-12T14:58:06;8.60;98.50
4635;DHT22;2330;48.158;11.816;2023-03-12T15:00:41;8.60;98.50
4635;DHT22;2330;48.158;11.816;2023-03-12T15:03:13;8.50;98.50
4635;DHT22;2330;48.158;11.816;2023-03-12T15:05:48;8.50;98.50
4635;DHT22;2330;48.158;11.816;2023-03-12T15:08:16;8.40;98.50
4635;DHT22;2330;48.158;11.816;2023-03-12T15:10:48;8.40;98.50
4635;DHT22;2330;48.158;11.816;2023-03-12T15:13:16;8.40;98.50
4635;DHT22;2330;48.158;11.816;2023-03-12T15:15:50;8.40;98.50
4635;DHT22;2330;48.158;11.816;2023-03-12T15:18:26;8.40;98.50
4635;DHT22;2330;48.158;11.816;2023-03-12T15:20:54;8.40;98.50
4635;DHT22;2330;48.158;11.816;2023-03-12T15:23:24;8.30;98.50
4635;DHT22;2330;48.158;11.816;2023-03-12T15:29:01;8.20;98.50
4635;DHT22;2330;48.158;11.816;2023-03-12T15:31:44;8.10;98.50
4635;DHT22;2330;48.158;11.816;2023-03-12T15:34:12;8.00;98.50
4635;DHT22;2330;48.158;11.816;2023-03-12T15:36:47;8.00;98.50
4635;DHT22;2330;48.158;11.816;2023-03-12T15:39:23;7.80;98.50
4635;DHT22;2330;48.158;11.816;2023-03-12T15:41:53;7.80;98.50
4635;DHT22;2330;48.158;11.816;2023-03-12T15:44:22;7.70;98.50
4635;DHT22;2330;48.158;11.816;2023-03-12T15:47:04;7.60;98.50
4635;DHT22;2330;48.158;11.816;2023-03-12T15:49:34;7.50;98.50
4635;DHT22;2330;48.158;11.816;2023-03-12T15:57:48;7.50;98.50
4635;DHT22;2330;48.158;11.816;2023-03-12T16:02:55;7.50;98.50
4635;DHT22;2330;48.158;11.816;2023-03-12T16:05:28;7.50;98.50
4635;DHT22;2330;48.158;11.816;2023-03-12T16:07:56;7.60;98.50
4635;DHT22;2330;48.158;11.816;2023-03-12T16:10:25;7.60;98.50
4635;DHT22;2330;48.158;11.816;2023-03-12T16:13:01;7.60;98.50
4635;DHT22;2330;48.158;11.816;2023-03-12T16:15:31;7.70;98.50
4635;DHT22;2330;48.158;11.816;2023-03-12T16:17:58;7.90;98.50
4635;DHT22;2330;48.158;11.816;2023-03-12T16:20:25;7.90;98.50
4635;DHT22;2330;48.158;11.816;2023-03-12T16:22:52;8.00;98.50
4635;DHT22;2330;48.158;11.816;2023-03-12T16:25:18;8.10;98.50
4635;DHT22;2330;48.158;11.816;2023-03-12T16:27:54;8.10;98.50
4635;DHT22;2330;48.158;11.816;2023-03-12T16:30:31;8.10;98.50
4635;DHT22;2330;48.158;11.816;2023-03-12T16:32:58;8.10;98.50
4635;DHT22;2330;48.158;11.816;2023-03-12T16:35:26;8.10;98.50
4635;DHT22;2330;48.158;11.816;2023-03-12T16:37:54;8.10;98.50
4635;DHT22;2330;48.158;11.816;2023-03-12T16:40:21;8.10;98.50
4635;DHT22;2330;48.158;11.816;2023-03-12T16:42:59;8.10;98.50
4635;DHT22;2330;48.158;11.816;2023-03-12T16:45:29;8.00;98.50
4635;DHT22;2330;48.158;11.816;2023-03-12T16:48:01;8.00;98.50
4635;DHT22;2330;48.158;11.816;2023-03-12T16:50:29;8.00;98.50
4635;DHT22;2330;48.158;11.816;2023-03-12T16:52:57;7.90;98.50
4635;DHT22;2330;48.158;11.816;2023-03-12T16:55:28;7.90;98.50
4635;DHT22;2330;48.158;11.816;2023-03-12T16:57:59;7.90;98.50
4635;DHT22;2330;48.158;11.816;2023-03-12T17:00:29;7.90;98.50
4635;DHT22;2330;48.158;11.816;2023-03-12T17:02:58;7.90;98.50
4635;DHT22;2330;48.158;11.816;2023-03-12T17:05:26;7.90;98.50
4635;DHT22;2330;48.158;11.816;2023-03-12T17:07:53;7.90;98.50
4635;DHT22;2330;48.158;11.816;2023-03-12T17:10:20;7.90;98.50
4635;DHT22;2330;48.158;11.816;2023-03-12T17:12:48;7.90;98.50
4635;DHT22;2330;48.158;11.816;2023-03-12T17:15:21;7.90;98.50
4635;DHT22;2330;48.158;11.816;2023-03-12T17:17:48;7.90;98.50
4635;DHT22;2330;48.158;11.816;2023-03-12T17:20:17;7.90;98.50
4635;DHT22;2330;48.158;11.816;2023-03-12T17:22:44;7.80;98.50
4635;DHT22;2330;48.158;11.816;2023-03-12T17:25:23;7.80;98.50
4635;DHT22;2330;48.158;11.816;2023-03-12T17:27:51;7.80;98.50
4635;DHT22;2330;48.158;11.816;2023-03-12T17:30:18;7.80;98.50
4635;DHT22;2330;48.158;11.816;2023-03-12T17:32:48;7.80;98.50
4635;DHT22;2330;48.158;11.816;2023-03-12T17:35:15;7.80;98.50
4635;DHT22;2330;48.158;11.816;2023-03-12T17:37:42;7.80;98.50
4635;DHT22;2330;48.158;11.816;2023-03-12T17:40:09;7.70;98.50
4635;DHT22;2330;48.158;11.816;2023-03-12T17:42:37;7.70;98.50